createdAt,value
2023-03-10T00:01:32.168Z,5.78
2023-03-10T00:04:01.061Z,5.71
2023-03-10T00:06:32.994Z,5.78
2023-03-10T00:09:00.389Z,5.80
2023-03-10T00:11:27.427Z,5.79
2023-03-10T00:13:54.375Z,5.82
2023-03-10T00:16:24.738Z,5.79
2023-03-10T00:18:52.763Z,5.74
2023-03-10T00:21:24.877Z,5.71
2023-03-10T00:23:53.001Z,5.62
2023-03-10T00:26:21.486Z,5.60
2023-03-10T00:28:49.318Z,5.55
2023-03-10T00:31:19.710Z,5.51
2023-03-10T00:33:47.017Z,5.46
2023-03-10T00:36:15.766Z,5.40
2023-03-10T00:38:43.864Z,5.37
2023-03-10T00:41:13.362Z,5.30
2023-03-10T00:43:40.728Z,5.25
2023-03-10T00:46:08.056Z,5.28
2023-03-10T00:48:35.752Z,5.25
2023-03-10T00:51:02.946Z,5.21
2023-03-10T00:53:29.919Z,5.18
2023-03-10T00:56:06.454Z,5.13
2023-03-10T00:58:34.312Z,5.18
2023-03-10T01:01:02.784Z,5.16
2023-03-10T01:03:29.944Z,5.12
2023-03-10T01:05:57.768Z,5.12
2023-03-10T01:08:24.958Z,5.15
2023-03-10T01:10:51.860Z,5.19
2023-03-10T01:13:19.727Z,5.16
2023-03-10T01:15:50.839Z,5.36
2023-03-10T01:18:20.098Z,5.54
2023-03-10T01:20:47.184Z,5.66
2023-03-10T01:23:24.968Z,5.76
2023-03-10T01:25:52.145Z,5.96
2023-03-10T01:28:19.652Z,6.10
2023-03-10T01:30:47.107Z,6.23
2023-03-10T01:33:14.408Z,6.36
2023-03-10T01:35:43.049Z,6.47
2023-03-10T01:38:10.590Z,6.50
2023-03-10T01:40:38.180Z,6.60
2023-03-10T01:43:20.193Z,6.63
2023-03-10T01:45:47.102Z,6.64
2023-03-10T01:48:16.329Z,6.63
2023-03-10T01:50:49.299Z,6.65
2023-03-10T01:53:18.896Z,6.62
2023-03-10T01:56:03.257Z,6.52
2023-03-10T01:58:37.383Z,6.52
2023-03-10T02:01:05.201Z,6.47
2023-03-10T02:03:41.930Z,6.41
2023-03-10T02:06:15.665Z,6.36
2023-03-10T02:09:09.572Z,6.21
2023-03-10T02:11:54.249Z,6.22
2023-03-10T02:14:42.057Z,6.16
2023-03-10T02:17:32.416Z,6.04
2023-03-10T02:20:56.655Z,6.05
2023-03-10T02:23:58.760Z,5.99
2023-03-10T02:26:46.025Z,5.99
2023-03-10T02:29:22.912Z,5.90
2023-03-10T02:31:51.466Z,5.93
2023-03-10T02:34:19.420Z,5.89
2023-03-10T02:36:46.483Z,5.87
2023-03-10T02:39:13.378Z,5.88
2023-03-10T02:41:40.632Z,5.85
2023-03-10T02:44:12.419Z,5.86
2023-03-10T02:46:39.589Z,5.83
2023-03-10T02:49:08.297Z,5.80
2023-03-10T02:51:37.879Z,5.80
2023-03-10T02:54:05.151Z,5.77
2023-03-10T02:56:34.774Z,5.69
2023-03-10T02:59:02.597Z,5.67
2023-03-10T03:01:30.740Z,5.71
2023-03-10T03:03:58.382Z,5.72
2023-03-10T03:06:25.645Z,5.71
2023-03-10T03:08:52.590Z,5.69
2023-03-10T03:11:19.999Z,5.69
2023-03-10T03:13:47.060Z,5.70
2023-03-10T03:16:14.447Z,5.69
2023-03-10T03:18:41.823Z,5.71
2023-03-10T03:21:12.932Z,5.71
2023-03-10T03:23:40.022Z,5.64
2023-03-10T03:26:15.969Z,5.67
2023-03-10T03:28:43.086Z,5.61
2023-03-10T03:31:18.688Z,5.59
2023-03-10T03:33:46.172Z,5.58
2023-03-10T03:36:13.898Z,5.57
2023-03-10T03:38:40.949Z,5.46
2023-03-10T03:41:08.955Z,5.53
2023-03-10T03:43:36.070Z,5.45
2023-03-10T03:46:04.708Z,5.51
2023-03-10T03:48:31.688Z,5.41
2023-03-10T03:50:58.591Z,5.52
2023-03-10T03:53:25.502Z,5.54
2023-03-10T03:55:52.526Z,5.53
2023-03-10T03:58:19.595Z,5.52
2023-03-10T04:00:46.966Z,5.51
2023-03-10T04:03:14.017Z,5.57
2023-03-10T04:05:41.332Z,5.52
2023-03-10T04:08:08.598Z,5.55
2023-03-10T04:10:35.870Z,5.39
2023-03-10T04:13:02.907Z,5.40
2023-03-10T04:15:30.246Z,5.44
2023-03-10T04:17:58.122Z,5.39
2023-03-10T04:20:26.546Z,5.36
2023-03-10T04:22:53.748Z,4.98
2023-03-10T04:25:20.704Z,5.29
2023-03-10T04:27:47.622Z,5.19
2023-03-10T04:30:15.755Z,5.26
2023-03-10T04:32:42.760Z,5.21
2023-03-10T04:35:12.937Z,5.19
2023-03-10T04:37:40.438Z,5.13
2023-03-10T04:40:09.647Z,5.10
2023-03-10T04:42:36.821Z,5.04
2023-03-10T04:45:04.052Z,5.04
2023-03-10T04:47:30.965Z,4.97
2023-03-10T04:49:57.879Z,4.94
2023-03-10T04:52:24.870Z,4.85
2023-03-10T04:54:51.861Z,4.84
2023-03-10T04:57:18.897Z,4.79
2023-03-10T04:59:45.949Z,4.74
2023-03-10T05:02:13.253Z,4.68
2023-03-10T05:04:40.447Z,4.68
2023-03-10T05:07:07.353Z,4.67
2023-03-10T05:09:38.049Z,4.60
2023-03-10T05:12:05.682Z,4.54
2023-03-10T05:14:32.580Z,4.38
2023-03-10T05:16:59.630Z,4.35
2023-03-10T05:19:26.550Z,4.38
2023-03-10T05:21:53.523Z,4.37
2023-03-10T05:24:20.417Z,4.41
2023-03-10T05:26:47.357Z,4.40
2023-03-10T05:29:14.272Z,4.42
2023-03-10T05:31:41.807Z,4.40
2023-03-10T05:34:09.307Z,4.40
2023-03-10T05:36:39.033Z,4.47
2023-03-10T05:39:06.571Z,4.47
2023-03-10T05:41:34.050Z,4.48
2023-03-10T05:44:01.063Z,4.53
2023-03-10T05:46:28.823Z,4.58
2023-03-10T05:48:57.249Z,4.68
2023-03-10T05:51:24.827Z,4.76
2023-03-10T05:53:51.782Z,4.81
2023-03-10T05:56:19.762Z,4.91
2023-03-10T05:58:47.636Z,4.99
2023-03-10T06:01:15.150Z,5.12
2023-03-10T06:03:42.444Z,5.22
2023-03-10T06:06:09.410Z,5.35
2023-03-10T06:08:36.425Z,5.56
2023-03-10T06:11:04.912Z,5.74
2023-03-10T06:13:32.749Z,5.91
2023-03-10T06:16:02.697Z,6.05
2023-03-10T06:18:30.411Z,6.26
2023-03-10T06:20:57.812Z,6.45
2023-03-10T06:23:25.885Z,6.63
2023-03-10T06:26:07.143Z,6.80
2023-03-10T06:28:37.022Z,6.98
2023-03-10T06:31:07.515Z,7.18
2023-03-10T06:33:34.723Z,7.30
2023-03-10T06:36:02.538Z,7.42
2023-03-10T06:38:30.757Z,7.49
2023-03-10T06:40:58.529Z,7.56
2023-03-10T06:43:26.047Z,7.60
2023-03-10T06:45:53.010Z,7.63
2023-03-10T06:48:20.026Z,7.74
2023-03-10T06:50:48.801Z,7.84
2023-03-10T06:53:21.097Z,8.00
2023-03-10T06:56:09.668Z,8.23
2023-03-10T06:58:38.107Z,8.40
2023-03-10T07:01:06.215Z,8.59
2023-03-10T07:03:34.571Z,8.78
2023-03-10T07:06:01.496Z,8.96
2023-03-10T07:08:29.511Z,9.15
2023-03-10T07:10:57.206Z,9.38
2023-03-10T07:13:24.134Z,9.58
2023-03-10T07:15:51.140Z,9.80
2023-03-10T07:18:18.136Z,10.03
2023-03-10T07:20:45.926Z,10.11
2023-03-10T07:23:13.443Z,10.22
2023-03-10T07:25:40.689Z,10.35
2023-03-10T07:28:07.876Z,10.43
2023-03-10T07:30:35.703Z,10.48
2023-03-10T07:33:02.662Z,10.48
2023-03-10T07:35:29.690Z,10.59
2023-03-10T07:37:56.683Z,10.58
2023-03-10T07:40:25.291Z,10.60
2023-03-10T07:42:55.015Z,10.77
2023-03-10T07:45:26.185Z,10.94
2023-03-10T07:47:54.893Z,11.13
2023-03-10T07:50:22.377Z,11.23
2023-03-10T07:52:49.606Z,11.34
2023-03-10T07:55:17.091Z,11.42
2023-03-10T07:57:44.300Z,11.60
2023-03-10T08:00:11.870Z,11.82
2023-03-10T08:02:39.450Z,11.73
2023-03-10T08:05:07.295Z,11.79
2023-03-10T08:07:34.558Z,12.09
2023-03-10T08:10:01.803Z,12.02
2023-03-10T08:12:28.793Z,12.15
2023-03-10T08:14:55.727Z,12.13
2023-03-10T08:17:23.586Z,12.19
2023-03-10T08:19:50.528Z,12.22
2023-03-10T08:22:17.635Z,12.26
2023-03-10T08:24:44.574Z,12.22
2023-03-10T08:27:11.492Z,12.23
2023-03-10T08:29:39.055Z,12.32
2023-03-10T08:32:06.361Z,12.37
2023-03-10T08:34:35.041Z,12.41
2023-03-10T08:37:02.678Z,12.55
2023-03-10T08:39:29.926Z,12.76
2023-03-10T08:41:56.966Z,12.97
2023-03-10T08:44:23.997Z,13.19
2023-03-10T08:46:51.214Z,13.45
2023-03-10T08:49:20.638Z,13.69
2023-03-10T08:51:48.824Z,13.70
2023-03-10T08:54:19.544Z,13.75
2023-03-10T08:56:46.797Z,13.73
2023-03-10T08:59:14.115Z,13.71
2023-03-10T09:01:41.150Z,13.74
2023-03-10T09:04:10.557Z,13.82
2023-03-10T09:06:38.682Z,13.94
2023-03-10T09:09:07.797Z,14.00
2023-03-10T09:11:38.960Z,14.07
2023-03-10T09:14:06.947Z,14.10
2023-03-10T09:16:34.406Z,14.16
2023-03-10T09:19:02.071Z,14.27
2023-03-10T09:21:33.458Z,14.39
2023-03-10T09:24:01.672Z,14.50
2023-03-10T09:26:28.586Z,14.59
2023-03-10T09:28:57.078Z,14.69
2023-03-10T09:31:28.695Z,14.83
2023-03-10T09:33:55.672Z,14.86
2023-03-10T09:36:22.584Z,14.95
2023-03-10T09:38:49.569Z,15.10
2023-03-10T09:41:26.921Z,15.09
2023-03-10T09:44:08.678Z,14.85
2023-03-10T09:46:50.931Z,15.02
2023-03-10T09:49:51.654Z,15.24
2023-03-10T09:52:42.831Z,15.33
2023-03-10T09:55:20.798Z,15.58
2023-03-10T09:57:51.294Z,15.64
2023-03-10T10:00:31.756Z,15.56
2023-03-10T10:03:07.997Z,15.54
2023-03-10T10:05:37.464Z,15.49
2023-03-10T10:08:18.582Z,15.51
2023-03-10T10:10:50.136Z,15.50
2023-03-10T10:13:17.815Z,15.53
2023-03-10T10:15:57.160Z,15.39
2023-03-10T10:18:46.814Z,15.28
2023-03-10T10:21:19.581Z,15.29
2023-03-10T10:23:52.129Z,15.44
2023-03-10T10:26:28.558Z,15.69
2023-03-10T10:29:01.632Z,15.90
2023-03-10T10:31:31.102Z,16.11
2023-03-10T10:34:08.158Z,16.27
2023-03-10T10:36:38.441Z,16.37
2023-03-10T10:39:28.004Z,16.41
2023-03-10T10:41:55.379Z,16.34
2023-03-10T10:44:22.333Z,16.34
2023-03-10T10:46:55.022Z,16.14
2023-03-10T10:49:31.836Z,15.91
2023-03-10T10:51:59.097Z,15.77
2023-03-10T10:54:30.755Z,15.67
2023-03-10T10:57:00.822Z,15.72
2023-03-10T10:59:36.828Z,15.86
2023-03-10T11:02:23.007Z,16.09
2023-03-10T11:04:50.255Z,16.27
2023-03-10T11:07:20.313Z,16.59
2023-03-10T11:09:48.333Z,16.57
2023-03-10T11:12:58.334Z,16.73
2023-03-10T11:15:35.072Z,16.98
2023-03-10T11:18:05.274Z,17.03
2023-03-10T11:20:57.307Z,17.16
2023-03-10T11:23:54.997Z,17.42
2023-03-10T11:26:49.374Z,17.65
2023-03-10T11:29:40.695Z,17.63
2023-03-10T11:32:30.703Z,17.58
2023-03-10T11:34:58.552Z,17.41
2023-03-10T11:37:36.576Z,17.30
2023-03-10T11:40:24.423Z,17.42
2023-03-10T11:43:03.476Z,17.57
2023-03-10T11:45:44.492Z,17.72
2023-03-10T11:48:20.193Z,17.86
2023-03-10T11:50:53.228Z,17.89
2023-03-10T11:53:39.247Z,17.80
2023-03-10T11:56:09.038Z,17.48
2023-03-10T11:58:57.660Z,17.50
2023-03-10T12:01:40.857Z,15.94
2023-03-10T12:04:17.152Z,15.54
2023-03-10T12:07:15.970Z,15.54
2023-03-10T12:09:51.435Z,15.33
2023-03-10T12:12:27.098Z,15.11
2023-03-10T12:14:55.373Z,15.21
2023-03-10T12:17:22.656Z,15.25
2023-03-10T12:20:29.556Z,15.09
2023-03-10T12:22:58.632Z,15.48
2023-03-10T12:25:28.322Z,15.60
2023-03-10T12:28:16.767Z,15.61
2023-03-10T12:30:52.633Z,15.76
2023-03-10T12:33:46.589Z,15.91
2023-03-10T12:36:52.535Z,16.08
2023-03-10T12:39:28.178Z,16.19
2023-03-10T12:42:30.416Z,16.20
2023-03-10T12:45:07.999Z,16.05
2023-03-10T12:47:56.422Z,15.96
2023-03-10T12:50:26.473Z,16.03
2023-03-10T12:52:58.905Z,16.17
2023-03-10T12:55:29.400Z,16.28
2023-03-10T12:58:17.852Z,16.34
2023-03-10T13:01:02.237Z,16.40
2023-03-10T13:03:54.433Z,16.40
2023-03-10T13:06:33.361Z,16.41
2023-03-10T13:09:26.023Z,16.42
2023-03-10T13:12:15.565Z,16.41
2023-03-10T13:14:44.412Z,16.38
2023-03-10T13:17:26.908Z,16.34
2023-03-10T13:20:17.720Z,16.57
2023-03-10T13:22:59.440Z,16.61
2023-03-10T13:25:26.786Z,17.14
2023-03-10T13:27:54.843Z,17.25
2023-03-10T13:30:26.735Z,17.16
2023-03-10T13:32:59.991Z,17.18
2023-03-10T13:35:31.437Z,17.06
2023-03-10T13:38:21.469Z,16.83
2023-03-10T13:40:58.471Z,16.82
2023-03-10T13:43:34.411Z,17.04
2023-03-10T13:46:03.385Z,17.25
2023-03-10T13:48:32.596Z,17.06
2023-03-10T13:51:20.610Z,16.92
2023-03-10T13:53:52.909Z,16.87
2023-03-10T13:56:27.416Z,16.73
2023-03-10T13:58:58.488Z,16.53
2023-03-10T14:01:29.148Z,16.24
2023-03-10T14:04:00.149Z,16.10
2023-03-10T14:06:29.064Z,15.98
2023-03-10T14:08:56.131Z,15.85
2023-03-10T14:11:32.612Z,15.74
2023-03-10T14:14:01.018Z,15.72
2023-03-10T14:16:48.248Z,15.74
2023-03-10T14:19:35.244Z,15.68
2023-03-10T14:22:02.493Z,15.71
2023-03-10T14:24:29.587Z,15.68
2023-03-10T14:27:00.669Z,15.78
2023-03-10T14:29:27.937Z,15.76
2023-03-10T14:31:54.836Z,15.73
2023-03-10T14:34:21.717Z,15.76
2023-03-10T14:36:48.633Z,15.73
2023-03-10T14:39:15.541Z,15.76
2023-03-10T14:41:42.531Z,15.77
2023-03-10T14:44:11.135Z,15.82
2023-03-10T14:46:38.428Z,15.80
2023-03-10T14:49:11.320Z,15.82
2023-03-10T14:51:38.237Z,15.84
2023-03-10T14:54:16.752Z,15.67
2023-03-10T14:56:43.861Z,15.74
2023-03-10T14:59:14.646Z,15.62
2023-03-10T15:01:43.227Z,15.44
2023-03-10T15:04:16.087Z,15.41
2023-03-10T15:06:44.000Z,15.45
2023-03-10T15:09:11.520Z,15.46
2023-03-10T15:11:39.384Z,15.39
2023-03-10T15:14:19.846Z,15.40
2023-03-10T15:16:46.942Z,15.42
2023-03-10T15:19:22.531Z,15.32
2023-03-10T15:21:49.575Z,15.23
2023-03-10T15:24:16.497Z,15.14
2023-03-10T15:26:43.564Z,15.21
2023-03-10T15:29:20.207Z,15.21
2023-03-10T15:31:47.560Z,15.05
2023-03-10T15:34:14.784Z,15.02
2023-03-10T15:36:41.749Z,14.91
2023-03-10T15:39:09.863Z,14.94
2023-03-10T15:41:39.592Z,14.99
2023-03-10T15:44:07.305Z,14.95
2023-03-10T15:46:34.339Z,15.02
2023-03-10T15:49:03.418Z,14.95
2023-03-10T15:51:30.344Z,15.00
2023-03-10T15:53:57.374Z,15.02
2023-03-10T15:56:24.362Z,14.94
2023-03-10T15:58:51.500Z,14.80
2023-03-10T16:01:20.954Z,14.62
2023-03-10T16:03:49.141Z,14.63
2023-03-10T16:06:16.247Z,14.61
2023-03-10T16:08:43.542Z,14.49
2023-03-10T16:11:20.985Z,14.41
2023-03-10T16:13:51.990Z,14.35
2023-03-10T16:16:20.621Z,14.27
2023-03-10T16:18:47.683Z,13.96
2023-03-10T16:21:17.844Z,14.15
2023-03-10T16:23:45.116Z,14.07
2023-03-10T16:26:23.597Z,14.00
2023-03-10T16:28:53.226Z,13.85
2023-03-10T16:31:22.482Z,13.80
2023-03-10T16:33:53.936Z,13.73
2023-03-10T16:36:23.558Z,13.63
2023-03-10T16:38:51.116Z,13.49
2023-03-10T16:41:18.240Z,13.46
2023-03-10T16:43:46.653Z,13.37
2023-03-10T16:46:25.681Z,13.30
2023-03-10T16:48:54.624Z,13.22
2023-03-10T16:51:27.538Z,13.08
2023-03-10T16:53:57.707Z,13.07
2023-03-10T16:56:25.626Z,13.05
2023-03-10T16:58:53.683Z,13.01
2023-03-10T17:01:20.844Z,12.98
2023-03-10T17:03:49.050Z,12.93
2023-03-10T17:06:22.960Z,12.83
2023-03-10T17:08:51.649Z,12.77
2023-03-10T17:11:32.558Z,12.68
2023-03-10T17:14:02.304Z,12.56
2023-03-10T17:16:31.301Z,12.47
2023-03-10T17:19:01.454Z,12.45
2023-03-10T17:21:32.956Z,12.39
2023-03-10T17:23:59.861Z,12.33
2023-03-10T17:26:26.844Z,12.24
2023-03-10T17:28:54.020Z,12.10
2023-03-10T17:31:26.485Z,12.11
2023-03-10T17:34:04.875Z,11.98
2023-03-10T17:36:31.938Z,11.90
2023-03-10T17:39:01.595Z,11.81
2023-03-10T17:41:30.451Z,11.73
2023-03-10T17:43:57.323Z,11.37
2023-03-10T17:46:27.441Z,11.60
2023-03-10T17:48:54.825Z,11.53
2023-03-10T17:51:27.347Z,11.42
2023-03-10T17:53:56.558Z,11.44
2023-03-10T17:56:24.017Z,11.38
2023-03-10T17:58:53.763Z,11.29
2023-03-10T18:01:23.683Z,11.29
2023-03-10T18:03:50.600Z,11.25
2023-03-10T18:06:23.440Z,11.23
2023-03-10T18:08:52.100Z,11.17
2023-03-10T18:11:21.332Z,11.07
2023-03-10T18:13:48.860Z,11.03
2023-03-10T18:16:19.186Z,10.96
2023-03-10T18:18:47.105Z,10.83
2023-03-10T18:21:15.511Z,10.87
2023-03-10T18:23:42.901Z,10.81
2023-03-10T18:26:18.441Z,10.72
2023-03-10T18:28:45.821Z,10.73
2023-03-10T18:31:25.274Z,10.73
2023-03-10T18:33:52.803Z,10.60
2023-03-10T18:36:20.905Z,10.63
2023-03-10T18:38:48.418Z,10.65
2023-03-10T18:41:19.038Z,10.25
2023-03-10T18:43:46.110Z,10.58
2023-03-10T18:46:13.151Z,10.51
2023-03-10T18:48:40.176Z,10.40
2023-03-10T18:51:07.311Z,10.30
2023-03-10T18:53:34.222Z,10.37
2023-03-10T18:56:01.570Z,10.34
2023-03-10T18:58:30.087Z,10.28
2023-03-10T19:00:57.211Z,10.24
2023-03-10T19:03:24.170Z,10.21
2023-03-10T19:05:54.751Z,10.17
2023-03-10T19:08:25.843Z,10.14
2023-03-10T19:11:00.020Z,10.09
2023-03-10T19:13:28.305Z,10.04
2023-03-10T19:15:55.675Z,9.99
2023-03-10T19:18:23.252Z,9.99
2023-03-10T19:20:51.155Z,9.98
2023-03-10T19:23:18.511Z,9.95
2023-03-10T19:25:45.552Z,9.91
2023-03-10T19:28:12.501Z,9.90
2023-03-10T19:30:43.032Z,9.88
2023-03-10T19:33:11.098Z,9.88
2023-03-10T19:35:38.264Z,9.86
2023-03-10T19:38:05.876Z,9.78
2023-03-10T19:40:33.436Z,9.80
2023-03-10T19:43:00.591Z,9.80
2023-03-10T19:45:27.881Z,9.75
2023-03-10T19:47:58.066Z,9.70
2023-03-10T19:50:25.625Z,9.71
2023-03-10T19:52:52.975Z,9.66
2023-03-10T19:55:23.613Z,9.65
2023-03-10T19:57:52.401Z,9.61
2023-03-10T20:00:25.044Z,9.56
2023-03-10T20:02:55.548Z,9.51
2023-03-10T20:05:25.579Z,9.45
2023-03-10T20:07:53.093Z,9.45
2023-03-10T20:10:20.437Z,9.40
2023-03-10T20:12:47.415Z,9.38
2023-03-10T20:15:15.205Z,9.32
2023-03-10T20:17:58.023Z,9.26
2023-03-10T20:20:24.917Z,9.24
2023-03-10T20:22:51.881Z,9.19
2023-03-10T20:25:21.392Z,9.14
2023-03-10T20:27:50.648Z,8.94
2023-03-10T20:30:21.245Z,9.05
2023-03-10T20:32:48.277Z,8.91
2023-03-10T20:35:16.505Z,8.96
2023-03-10T20:37:44.710Z,8.85
2023-03-10T20:40:14.506Z,8.89
2023-03-10T20:42:42.168Z,8.87
2023-03-10T20:45:10.424Z,8.81
2023-03-10T20:47:38.140Z,8.80
2023-03-10T20:50:10.008Z,8.82
2023-03-10T20:52:39.186Z,8.81
2023-03-10T20:55:08.385Z,8.91
2023-03-10T20:57:35.322Z,8.93
2023-03-10T21:00:02.327Z,8.94
2023-03-10T21:02:29.636Z,8.99
2023-03-10T21:04:56.493Z,9.03
2023-03-10T21:07:23.393Z,9.07
2023-03-10T21:09:50.580Z,9.10
2023-03-10T21:12:18.895Z,9.15
2023-03-10T21:14:46.194Z,9.11
2023-03-10T21:17:13.803Z,9.06
2023-03-10T21:19:40.784Z,9.14
2023-03-10T21:22:08.111Z,9.11
2023-03-10T21:24:35.140Z,9.13
2023-03-10T21:27:03.110Z,9.12
2023-03-10T21:29:29.991Z,9.11
2023-03-10T21:31:56.934Z,9.09
2023-03-10T21:34:23.829Z,9.05
2023-03-10T21:36:50.766Z,8.99
2023-03-10T21:39:17.804Z,9.00
2023-03-10T21:41:45.217Z,9.01
2023-03-10T21:44:12.351Z,8.96
2023-03-10T21:46:39.432Z,8.98
2023-03-10T21:49:06.694Z,8.96
2023-03-10T21:51:35.220Z,8.95
2023-03-10T21:54:03.574Z,8.93
2023-03-10T21:56:31.496Z,8.93
2023-03-10T21:58:58.506Z,8.92
2023-03-10T22:01:26.402Z,8.90
2023-03-10T22:03:53.769Z,8.79
2023-03-10T22:06:21.019Z,8.92
2023-03-10T22:08:48.151Z,8.92
2023-03-10T22:11:15.364Z,8.94
2023-03-10T22:13:42.770Z,8.95
2023-03-10T22:16:14.142Z,8.96
2023-03-10T22:18:41.089Z,8.95
2023-03-10T22:21:08.020Z,9.00
2023-03-10T22:23:34.951Z,8.99
2023-03-10T22:26:01.874Z,9.04
2023-03-10T22:28:28.822Z,9.07
2023-03-10T22:30:55.823Z,9.10
2023-03-10T22:33:22.757Z,9.16
2023-03-10T22:35:52.454Z,9.20
2023-03-10T22:38:20.690Z,9.30
2023-03-10T22:40:48.020Z,9.33
2023-03-10T22:43:15.578Z,9.35
2023-03-10T22:45:42.744Z,9.34
2023-03-10T22:48:09.746Z,9.35
2023-03-10T22:50:43.764Z,9.35
2023-03-10T22:53:16.775Z,9.34
2023-03-10T22:55:44.148Z,9.33
2023-03-10T22:58:11.517Z,9.31
2023-03-10T23:00:39.816Z,9.27
2023-03-10T23:03:07.669Z,9.21
2023-03-10T23:05:34.662Z,9.16
2023-03-10T23:08:01.676Z,9.08
2023-03-10T23:10:31.576Z,9.04
2023-03-10T23:13:00.211Z,8.98
2023-03-10T23:15:30.493Z,8.81
2023-03-10T23:17:58.234Z,8.83
2023-03-10T23:20:28.499Z,8.77
2023-03-10T23:22:57.325Z,8.69
2023-03-10T23:25:33.032Z,8.63
2023-03-10T23:28:00.395Z,8.61
2023-03-10T23:30:28.240Z,8.56
2023-03-10T23:32:56.318Z,8.54
2023-03-10T23:35:41.425Z,8.49
2023-03-10T23:38:08.744Z,8.46
2023-03-10T23:40:36.999Z,8.32
2023-03-10T23:43:06.449Z,8.36
2023-03-10T23:45:35.311Z,8.35
2023-03-10T23:48:02.605Z,8.33
2023-03-10T23:50:35.882Z,8.29
2023-03-10T23:53:04.445Z,8.28
2023-03-10T23:55:34.582Z,8.25
2023-03-10T23:58:01.671Z,8.23
